ADDS METAR Data INFO
IDs: Format: Raw Decoded Include TAF

Data at: 0434 UTC 28 Jul 2017

KLFK 280353Z AUTO 18004KT 10SM CLR 27/23 A2994 RMK AO2 SLP135 T02720233
KLFK 280253Z AUTO 15005KT 10SM CLR 28/24 A2993 RMK AO2 SLP131 T02780239 55005
KLFK 280153Z AUTO 15004KT 10SM CLR 29/24 A2993 RMK AO2 SLP129 T02890239
KLFK 280053Z AUTO 16004KT 10SM CLR 31/23 A2993 RMK AO2 SLP131 T03110233
KLFK 272353Z AUTO 18005KT 10SM CLR 33/23 A2995 RMK AO2 SLP136 T03280228 10344 20322 56016
KLFK 272253Z AUTO 19005KT 10SM FEW046 FEW060 34/23 A2996 RMK AO2 SLP139 T03390228
KLFK 272153Z AUTO 21006KT 10SM SCT047 34/22 A2997 RMK AO2 SLP144 T03390222
KLFK 272053Z AUTO 20007KT 180V250 10SM CLR 34/23 A2999 RMK AO2 SLP152 T03390228 58021
KLFK 271953Z AUTO 20005KT 10SM FEW046 34/22 A3002 RMK AO2 SLP161 T03390222
KLFK 271853Z AUTO 19009KT 10SM CLR 33/23 A3004 RMK AO2 SLP167 T03330228
KLFK 271753Z AUTO 20008KT 170V260 10SM FEW032 32/24 A3006 RMK AO2 SLP173 T03220239 10322 20233 58007
KLFK 271714Z AUTO 24004KT 10SM SCT027 32/24 A3007 RMK AO2 T03170239
KLFK 271706Z AUTO 22004KT 10SM BKN027 32/24 A3007 RMK AO2 T03170244
KLFK 271653Z AUTO VRB06KT 10SM SCT027 32/24 A3007 RMK AO2 SLP179 T03170244
KLFK 271553Z AUTO VRB05KT 10SM CLR 30/24 A3008 RMK AO2 SLP182 T03000239
KLFK 271453Z AUTO 23007KT 10SM FEW012 28/24 A3008 RMK AO2 SLP180 T02780239 51010
KLFK 271443Z AUTO 25007KT 10SM SCT011 28/25 A3008 RMK AO2 T02830250
KLFK 271400Z AUTO 21009KT 10SM BKN009 27/24 A3007 RMK AO2 T02670244
KLFK 271353Z AUTO 21009KT 10SM SCT009 27/24 A3007 RMK AO2 SLP177 T02670244
KLFK 271335Z AUTO 23006KT 10SM FEW009 26/24 A3006 RMK AO2 T02610244
KLFK 271253Z AUTO 19003KT 10SM CLR 25/23 A3006 RMK AO2 SLP174 T02500233
KLFK 271153Z AUTO 00000KT 8SM CLR 23/23 A3005 RMK AO2 SLP170 T02330228 10244 20228 53002
KLFK 271053Z AUTO 20003KT 10SM CLR 23/23 A3004 RMK AO2 SLP166 T02330228
KLFK 270953Z AUTO 00000KT 10SM CLR 24/23 A3004 RMK AO2 SLP167 T02390228
KLFK 270853Z AUTO 16003KT 10SM CLR 24/23 A3004 RMK AO2 SLP168 T02390228 56004
KLFK 270753Z AUTO 00000KT 10SM CLR 24/23 A3005 RMK AO2 SLP170 T02390228
KLFK 270653Z AUTO 14004KT 10SM CLR 24/23 A3005 RMK AO2 SLP170 T02440228
KLFK 270553Z AUTO 15004KT 10SM CLR 24/23 A3005 RMK AO2 SLP172 T02440228 10333 20244 403440233 50002
KLFK 270453Z AUTO 11004KT 10SM CLR 25/23 A3006 RMK AO2 SLP173 T02500228
KLFK 270353Z AUTO 15005KT 10SM CLR 26/23 A3005 RMK AO2 SLP169 T02610228
KLFK 270253Z AUTO 11003KT 10SM CLR 27/23 A3005 RMK AO2 SLP170 T02670233 51010
KLFK 270153Z AUTO 16004KT 10SM CLR 28/24 A3004 RMK AO2 SLP167 T02830239
KLFK 270053Z AUTO 16007KT 10SM CLR 31/24 A3003 RMK AO2 SLP162 T03060239
KLFK 262353Z AUTO 16005KT 10SM CLR 33/23 A3002 RMK AO2 SLP159 T03330228 10344 20317 56013
KLFK 262253Z AUTO 18005KT 10SM CLR 34/22 A3002 RMK AO2 SLP160 T03390217
KLFK 262153Z AUTO 16006KT 10SM CLR 34/22 A3003 RMK AO2 SLP165 T03440217
KLFK 262053Z AUTO 20004KT 10SM CLR 33/22 A3005 RMK AO2 SLP172 T03330222 58018
KLFK 261953Z AUTO 25003KT 10SM FEW047 34/22 A3007 RMK AO2 SLP179 T03390222
KLFK 261853Z AUTO 23006KT 10SM SCT045 SCT055 33/23 A3009 RMK AO2 SLP186 T03280228
KLFK 261753Z AUTO 21007KT 10SM CLR 32/23 A3011 RMK AO2 SLP190 T03220228 10328 20233 56007
KLFK 261653Z AUTO 24010KT 10SM CLR 32/23 A3011 RMK AO2 SLP191 T03220233